createdAt,value
2019-06-15T00:00:42.976Z,23.08
2019-06-15T00:05:48.447Z,23.05
2019-06-15T00:10:53.924Z,23.07
2019-06-15T00:15:59.337Z,23.06
2019-06-15T00:21:04.774Z,23.07
2019-06-15T00:26:10.198Z,23.06
2019-06-15T00:31:15.687Z,23.05
2019-06-15T00:36:21.117Z,23.02
2019-06-15T00:41:26.637Z,22.90
2019-06-15T00:46:32.161Z,22.75
2019-06-15T00:51:37.727Z,22.64
2019-06-15T00:56:43.149Z,22.58
2019-06-15T01:01:48.673Z,22.52
2019-06-15T01:06:54.132Z,22.47
2019-06-15T01:11:59.613Z,22.42
2019-06-15T01:17:05.038Z,22.37
2019-06-15T01:22:10.523Z,22.33
2019-06-15T01:27:15.949Z,22.26
2019-06-15T01:32:21.448Z,22.23
2019-06-15T01:37:26.987Z,22.23
2019-06-15T01:42:32.396Z,22.23
2019-06-15T01:47:37.859Z,22.25
2019-06-15T01:52:43.370Z,22.29
2019-06-15T01:57:48.954Z,22.32
2019-06-15T02:02:54.518Z,22.34
2019-06-15T02:08:00.078Z,22.34
2019-06-15T02:13:05.669Z,22.30
2019-06-15T02:18:11.107Z,22.23
2019-06-15T02:23:16.798Z,22.20
2019-06-15T02:28:22.396Z,22.16
2019-06-15T02:33:28.115Z,22.09
2019-06-15T02:38:33.679Z,22.04
2019-06-15T02:43:39.121Z,22.02
2019-06-15T02:48:44.549Z,21.93
2019-06-15T02:53:50.123Z,21.74
2019-06-15T02:58:55.758Z,21.58
2019-06-15T03:04:01.182Z,21.52
2019-06-15T03:09:07.385Z,21.51
2019-06-15T03:14:12.869Z,21.53
2019-06-15T03:19:18.453Z,21.56
2019-06-15T03:24:23.926Z,21.60
2019-06-15T03:29:29.379Z,21.67
2019-06-15T03:34:34.919Z,21.71
2019-06-15T03:39:40.420Z,21.71
2019-06-15T03:44:45.924Z,21.69
2019-06-15T03:49:51.361Z,21.67
2019-06-15T03:54:56.851Z,21.66
2019-06-15T04:00:02.304Z,21.66
2019-06-15T04:05:07.826Z,21.66
2019-06-15T04:10:13.260Z,21.68
2019-06-15T04:15:18.803Z,21.66
2019-06-15T04:20:24.286Z,21.65
2019-06-15T04:25:29.725Z,21.66
2019-06-15T04:30:35.234Z,21.71
2019-06-15T04:35:40.699Z,21.74
2019-06-15T04:40:46.133Z,21.76
2019-06-15T04:45:51.637Z,21.80
2019-06-15T04:50:57.168Z,21.83
2019-06-15T04:56:02.637Z,21.94
2019-06-15T05:01:08.088Z,22.03
2019-06-15T05:06:13.565Z,22.08
2019-06-15T05:11:19.227Z,22.10
2019-06-15T05:16:24.653Z,22.11
2019-06-15T05:21:30.080Z,22.15
2019-06-15T05:26:35.578Z,22.19
2019-06-15T05:31:41.029Z,22.24
2019-06-15T05:36:46.707Z,22.31
2019-06-15T05:41:52.260Z,22.37
2019-06-15T05:46:58.066Z,22.33
2019-06-15T05:52:03.515Z,22.29
2019-06-15T05:57:20.902Z,22.26
2019-06-15T06:02:16.282Z,22.30
2019-06-15T06:07:21.777Z,22.37
2019-06-15T06:12:28.922Z,22.49
2019-06-15T06:17:34.461Z,22.72
2019-06-15T06:22:39.930Z,23.17
2019-06-15T06:27:45.400Z,23.79
2019-06-15T06:32:50.989Z,24.42
2019-06-15T06:37:56.632Z,24.95
2019-06-15T06:43:02.192Z,26.47
2019-06-15T06:48:07.765Z,29.35
2019-06-15T06:53:13.482Z,31.14
2019-06-15T06:58:19.204Z,31.58
2019-06-15T07:03:24.989Z,31.64
2019-06-15T07:08:30.776Z,32.26
2019-06-15T07:13:36.480Z,33.28
2019-06-15T07:18:42.362Z,33.36
2019-06-15T07:23:48.127Z,33.15
2019-06-15T07:28:53.888Z,33.15
2019-06-15T07:33:59.615Z,33.21
2019-06-15T07:39:06.063Z,33.40
2019-06-15T07:44:11.793Z,33.28
2019-06-15T07:49:17.561Z,33.12
2019-06-15T07:54:23.308Z,32.17
2019-06-15T07:59:29.210Z,30.88
2019-06-15T08:04:34.950Z,29.38
2019-06-15T08:09:40.751Z,28.28
2019-06-15T08:14:46.554Z,27.98
2019-06-15T08:19:52.310Z,28.43
2019-06-15T08:24:58.013Z,31.82
2019-06-15T08:30:03.751Z,36.74
2019-06-15T08:35:09.475Z,40.21
2019-06-15T08:40:15.243Z,39.83
2019-06-15T08:45:20.968Z,37.95
2019-06-15T08:50:26.660Z,35.86
2019-06-15T08:55:32.425Z,33.75
2019-06-15T09:00:38.150Z,32.15
2019-06-15T09:05:43.924Z,31.03
2019-06-15T09:10:49.653Z,30.01
2019-06-15T09:15:55.543Z,29.20
2019-06-15T09:21:01.259Z,28.93
2019-06-15T09:26:06.957Z,29.46
2019-06-15T09:31:12.697Z,30.07
2019-06-15T09:36:18.481Z,33.20
2019-06-15T09:41:24.239Z,35.98
2019-06-15T09:46:29.950Z,38.77
2019-06-15T09:51:35.763Z,39.23
2019-06-15T09:56:41.535Z,38.20
2019-06-15T10:01:47.273Z,36.66
2019-06-15T10:06:53.107Z,35.58
2019-06-15T10:11:58.988Z,34.65
2019-06-15T10:17:04.780Z,33.63
2019-06-15T10:22:10.543Z,33.07
2019-06-15T10:27:16.379Z,32.71
2019-06-15T10:32:22.138Z,32.21
2019-06-15T10:37:27.830Z,31.78
2019-06-15T10:42:33.600Z,31.25
2019-06-15T10:47:39.361Z,30.78
2019-06-15T10:52:45.193Z,30.76
2019-06-15T10:57:50.948Z,30.82
2019-06-15T11:02:56.867Z,30.98
2019-06-15T11:08:02.646Z,31.19
2019-06-15T11:13:08.344Z,31.42
2019-06-15T11:18:14.052Z,31.72
2019-06-15T11:23:19.898Z,32.10
2019-06-15T11:28:25.612Z,32.30
2019-06-15T11:33:31.475Z,32.08
2019-06-15T11:38:37.204Z,31.81
2019-06-15T11:43:43.151Z,31.43
2019-06-15T11:48:48.937Z,30.84
2019-06-15T11:53:54.654Z,30.12
2019-06-15T11:59:00.498Z,29.75
2019-06-15T12:04:06.235Z,29.77
2019-06-15T12:09:12.115Z,30.08
2019-06-15T12:14:18.363Z,30.02
2019-06-15T12:19:24.610Z,29.78
2019-06-15T12:24:30.525Z,29.47
2019-06-15T12:29:36.366Z,29.21
2019-06-15T12:34:42.318Z,29.09
2019-06-15T12:39:48.466Z,29.10
2019-06-15T12:44:54.257Z,29.07
2019-06-15T12:50:00.443Z,29.17
2019-06-15T12:55:06.888Z,29.43
2019-06-15T13:00:13.248Z,29.53
2019-06-15T13:05:19.169Z,29.60
2019-06-15T13:10:25.093Z,29.81
2019-06-15T13:15:30.998Z,29.79
2019-06-15T13:20:37.248Z,29.63
2019-06-15T13:25:43.374Z,29.38
2019-06-15T13:30:49.479Z,29.14
2019-06-15T13:35:55.471Z,29.23
2019-06-15T13:41:01.442Z,29.32
2019-06-15T13:46:07.624Z,29.45
2019-06-15T13:51:13.723Z,29.47
2019-06-15T13:56:19.626Z,29.62
2019-06-15T14:01:34.165Z,29.67
2019-06-15T14:06:32.869Z,29.62
2019-06-15T14:11:38.582Z,29.63
2019-06-15T14:16:44.295Z,29.78
2019-06-15T14:21:50.109Z,29.79
2019-06-15T14:26:55.936Z,29.62
2019-06-15T14:32:02.255Z,29.45
2019-06-15T14:37:08.117Z,29.40
2019-06-15T14:42:13.890Z,29.31
2019-06-15T14:47:19.777Z,29.20
2019-06-15T14:52:25.576Z,29.10
2019-06-15T14:57:31.461Z,28.97
2019-06-15T15:02:38.087Z,28.85
2019-06-15T15:07:43.969Z,28.82
2019-06-15T15:12:49.863Z,28.92
2019-06-15T15:17:57.773Z,29.06
2019-06-15T15:23:03.074Z,29.21
2019-06-15T15:28:08.885Z,29.42
2019-06-15T15:33:14.598Z,29.63
2019-06-15T15:38:20.334Z,29.82
2019-06-15T15:43:26.476Z,29.77
2019-06-15T15:48:32.326Z,29.65
2019-06-15T15:53:38.038Z,29.51
2019-06-15T15:58:43.755Z,29.26
2019-06-15T16:03:49.458Z,29.00
2019-06-15T16:08:56.919Z,28.80
2019-06-15T16:14:02.834Z,28.68
2019-06-15T16:19:08.575Z,28.54
2019-06-15T16:24:16.478Z,28.36
2019-06-15T16:29:21.722Z,28.26
2019-06-15T16:34:27.153Z,28.22
2019-06-15T16:39:32.870Z,28.25
2019-06-15T16:44:38.605Z,28.28
2019-06-15T16:49:46.456Z,28.30
2019-06-15T16:54:51.682Z,28.27
2019-06-15T16:59:57.490Z,28.16
2019-06-15T17:05:02.982Z,28.10
2019-06-15T17:10:08.787Z,28.09
2019-06-15T17:15:16.893Z,28.01
2019-06-15T17:20:27.427Z,27.85
2019-06-15T17:25:33.153Z,27.51
2019-06-15T17:30:38.592Z,27.25
2019-06-15T17:35:56.101Z,27.04
2019-06-15T17:40:51.265Z,26.89
2019-06-15T17:45:56.780Z,26.84
2019-06-15T17:51:02.263Z,26.86
2019-06-15T17:56:07.710Z,26.94
2019-06-15T18:01:13.341Z,26.96
2019-06-15T18:06:18.901Z,27.00
2019-06-15T18:11:26.215Z,26.99
2019-06-15T18:16:31.508Z,26.92
2019-06-15T18:21:40.899Z,26.81
2019-06-15T18:26:44.156Z,26.66
2019-06-15T18:31:49.578Z,26.49
2019-06-15T18:36:56.151Z,26.27
2019-06-15T18:42:01.791Z,26.08
2019-06-15T18:47:07.290Z,25.87
2019-06-15T18:52:12.750Z,25.67
2019-06-15T18:57:18.284Z,25.57
2019-06-15T19:02:23.795Z,25.51
2019-06-15T19:07:29.343Z,25.47
2019-06-15T19:12:34.833Z,25.44
2019-06-15T19:17:40.547Z,25.42
2019-06-15T19:22:47.582Z,25.37
2019-06-15T19:27:53.156Z,25.31
2019-06-15T19:32:58.611Z,25.27
2019-06-15T19:38:06.333Z,25.25
2019-06-15T19:43:11.211Z,25.23
2019-06-15T19:48:17.359Z,25.16
2019-06-15T19:53:22.952Z,25.08
2019-06-15T19:58:28.466Z,25.01
2019-06-15T20:03:36.089Z,24.86
2019-06-15T20:08:41.099Z,24.64
2019-06-15T20:13:47.471Z,24.42
2019-06-15T20:18:53.045Z,24.26
2019-06-15T20:23:58.625Z,24.14
2019-06-15T20:29:04.061Z,24.04
2019-06-15T20:34:09.513Z,23.98
2019-06-15T20:39:16.496Z,23.92
2019-06-15T20:44:22.144Z,23.83
2019-06-15T20:49:27.717Z,23.67
2019-06-15T20:54:33.280Z,23.51
2019-06-15T20:59:38.775Z,23.35
2019-06-15T21:04:44.339Z,23.24
2019-06-15T21:09:49.786Z,23.18
2019-06-15T21:14:56.158Z,23.13
2019-06-15T21:20:01.703Z,23.01
2019-06-15T21:25:07.298Z,22.89
2019-06-15T21:30:12.775Z,22.77
2019-06-15T21:35:18.288Z,22.71
2019-06-15T21:40:23.848Z,22.69
2019-06-15T21:45:29.391Z,22.70
2019-06-15T21:50:36.221Z,22.73
2019-06-15T21:55:41.953Z,22.75
2019-06-15T22:01:33.303Z,22.77
2019-06-15T22:06:38.823Z,22.80
2019-06-15T22:11:47.116Z,22.83
2019-06-15T22:16:52.799Z,22.85
2019-06-15T22:21:58.310Z,22.87
2019-06-15T22:27:03.793Z,22.90
2019-06-15T22:32:09.369Z,22.92
2019-06-15T22:37:17.191Z,22.92
2019-06-15T22:42:22.016Z,22.89
2019-06-15T22:47:27.507Z,22.84
2019-06-15T22:52:33.026Z,22.79
2019-06-15T22:57:38.481Z,22.74
2019-06-15T23:02:46.101Z,22.68
2019-06-15T23:07:51.267Z,22.61
2019-06-15T23:12:56.916Z,22.52
2019-06-15T23:18:02.492Z,22.38
2019-06-15T23:23:08.056Z,22.23
2019-06-15T23:28:13.599Z,22.07
2019-06-15T23:33:19.061Z,21.92
2019-06-15T23:38:26.748Z,21.77
2019-06-15T23:43:31.778Z,21.65
2019-06-15T23:48:37.234Z,21.50
2019-06-15T23:53:42.722Z,21.33
2019-06-15T23:58:48.160Z,21.15
